Time;durP1;ratioP1;P1;durP2;ratioP2;P2;SDS_P1;SDS_P2;PMS_P1;PMS_P2;Temp;Humidity;BMP_temperature;BMP_pressure;BME280_temperature;BME280_humidity;BME280_pressure;Samples;Min_cycle;Max_cycle;Signal;HPM_P1;HPM_P2
2024/02/24 00:00:47;;;;;;;;;;;;;;;6.49;100.00;97716.25;4982845;28;20316;-83
2024/02/24 00:03:13;;;;;;;;;;;;;;;6.54;100.00;97712.44;4981671;28;20419;-84
2024/02/24 00:05:38;;;;;;;;;;;;;;;6.54;100.00;97708.94;4983940;28;19918;-87
2024/02/24 00:08:03;;;;;;;;;;;;;;;6.60;100.00;97705.94;4982564;28;19968;-86
2024/02/24 00:10:29;;;;;;;;;;;;;;;6.58;100.00;97713.09;4983566;28;19980;-90
2024/02/24 00:12:54;;;;;;;;;;;;;;;6.60;100.00;97708.56;4983734;28;19929;-85
2024/02/24 00:15:19;;;;;;;;;;;;;;;6.58;100.00;97707.00;4982819;28;19969;-85
2024/02/24 00:17:44;;;;;;;;;;;;;;;6.58;100.00;97707.84;4983861;28;19918;-86
2024/02/24 00:20:10;;;;;;;;;;;;;;;6.58;100.00;97707.84;4984085;28;19922;-85
2024/02/24 00:22:36;;;;;;;;;;;;;;;6.47;100.00;97712.88;4984386;28;20012;-85
2024/02/24 00:25:01;;;;;;;;;;;;;;;6.57;100.00;97719.28;4981524;28;19997;-84
2024/02/24 00:27:27;;;;;;;;;;;;;;;6.57;100.00;97708.75;4981257;28;20318;-86
2024/02/24 00:29:52;;;;;;;;;;;;;;;6.59;100.00;97717.44;4984546;28;20009;-88
2024/02/24 00:32:17;;;;;;;;;;;;;;;6.61;100.00;97712.91;4981717;28;19968;-84
2024/02/24 00:34:43;;;;;;;;;;;;;;;6.63;100.00;97715.44;4982991;28;19922;-86
2024/02/24 00:37:08;;;;;;;;;;;;;;;6.61;100.00;97710.28;4984065;28;20374;-86
2024/02/24 00:39:33;;;;;;;;;;;;;;;6.64;100.00;97719.78;4983545;28;19926;-88
2024/02/24 00:41:59;;;;;;;;;;;;;;;6.62;100.00;97722.50;4980941;28;19922;-87
2024/02/24 00:44:24;;;;;;;;;;;;;;;6.63;100.00;97724.19;4982334;28;19925;-89
2024/02/24 00:46:49;;;;;;;;;;;;;;;6.64;100.00;97719.78;4982321;28;19957;-86
2024/02/24 00:49:14;;;;;;;;;;;;;;;6.61;100.00;97725.22;4981938;28;20285;-89
2024/02/24 00:51:41;;;;;;;;;;;;;;;6.61;100.00;97725.22;4983789;28;19919;-91
2024/02/24 00:54:08;;;;;;;;;;;;;;;6.56;100.00;97725.50;4982389;28;20290;-91
2024/02/24 00:56:33;;;;;;;;;;;;;;;6.66;100.00;97731.91;4981899;28;19923;-88
2024/02/24 00:58:58;;;;;;;;;;;;;;;6.62;100.00;97722.50;4982308;28;19926;-86
2024/02/24 01:01:23;;;;;;;;;;;;;;;6.61;100.00;97715.53;4983028;28;20382;-86
2024/02/24 01:03:49;;;;;;;;;;;;;;;6.63;100.00;97712.81;4983218;28;19968;-85
2024/02/24 01:06:14;;;;;;;;;;;;;;;6.62;100.00;97716.38;4984129;28;19918;-87
2024/02/24 01:08:39;;;;;;;;;;;;;;;6.60;100.00;97711.22;4982610;28;19929;-89
2024/02/24 01:11:06;;;;;;;;;;;;;;;6.59;100.00;97713.94;4982085;28;20332;-88
2024/02/24 01:13:31;;;;;;;;;;;;;;;6.63;100.00;97713.66;4982116;28;19924;-87
2024/02/24 01:15:56;;;;;;;;;;;;;;;6.64;100.00;97715.38;4983716;28;19922;-86
2024/02/24 01:18:23;;;;;;;;;;;;;;;6.62;100.00;97711.13;4982284;28;20373;-90
2024/02/24 01:20:48;;;;;;;;;;;;;;;6.66;100.00;97708.22;4982086;28;19957;-87
2024/02/24 01:23:14;;;;;;;;;;;;;;;6.65;100.00;97714.44;4982570;28;20019;-87
2024/02/24 01:25:39;;;;;;;;;;;;;;;6.55;100.00;97710.63;4982339;28;20037;-86
2024/02/24 01:28:05;;;;;;;;;;;;;;;6.64;100.00;97710.09;4980991;28;19918;-89
2024/02/24 01:30:30;;;;;;;;;;;;;;;6.59;100.00;97706.03;4981142;28;20016;-87
2024/02/24 01:32:56;;;;;;;;;;;;;;;6.57;100.00;97708.75;4981877;28;19926;-83
2024/02/24 01:35:21;;;;;;;;;;;;;;;6.66;100.00;97702.13;4983070;28;20056;-86
2024/02/24 01:37:46;;;;;;;;;;;;;;;6.61;100.00;97705.00;4982617;28;19918;-86
2024/02/24 06:22:00;;;;;;;;;;;;;;;6.73;100.00;97912.22;4962605;28;19934;-89
2024/02/24 06:24:25;;;;;;;;;;;;;;;6.67;100.00;97909.06;4976663;28;20397;-88
2024/02/24 06:26:50;;;;;;;;;;;;;;;6.65;100.00;97903.94;4976763;28;19976;-88
2024/02/24 06:29:16;;;;;;;;;;;;;;;6.65;100.00;97922.34;4975524;28;19972;-88
2024/02/24 06:31:41;;;;;;;;;;;;;;;6.66;100.00;97924.03;4975376;28;19922;-87
2024/02/24 06:34:07;;;;;;;;;;;;;;;6.73;100.00;97930.66;4975604;28;19918;-90
2024/02/24 06:36:32;;;;;;;;;;;;;;;6.76;100.00;97940.13;4974144;28;19919;-90
2024/02/24 06:39:00;;;;;;;;;;;;;;;6.77;100.00;97946.28;4976567;28;19938;-90
2024/02/24 06:41:25;;;;;;;;;;;;;;;6.70;100.00;97957.16;4976453;28;19922;-92
2024/02/24 06:43:51;;;;;;;;;;;;;;;6.68;100.00;97963.41;4976610;28;19926;-93
2024/02/24 06:46:16;;;;;;;;;;;;;;;6.75;100.00;97966.53;4978260;28;19973;-94
2024/02/24 06:48:42;;;;;;;;;;;;;;;6.77;100.00;97975.22;4976476;28;19922;-91
2024/02/24 06:51:07;;;;;;;;;;;;;;;6.76;100.00;97981.41;4975072;28;19976;-90
2024/02/24 06:53:33;;;;;;;;;;;;;;;6.64;100.00;97983.81;4976427;28;19922;-91
2024/02/24 06:56:03;;;;;;;;;;;;;;;6.69;100.00;97992.28;4976465;28;20012;-91
2024/02/24 06:58:28;;;;;;;;;;;;;;;6.75;100.00;97992.88;4974916;28;19926;-91
2024/02/24 07:00:54;;;;;;;;;;;;;;;6.73;100.00;97993.81;4974824;28;19922;-91
2024/02/24 07:03:19;;;;;;;;;;;;;;;6.73;100.00;97999.09;4976192;28;20022;-89
2024/02/24 07:05:44;;;;;;;;;;;;;;;6.75;100.00;98006.03;4974808;28;19922;-89
2024/02/24 07:08:10;;;;;;;;;;;;;;;6.71;100.00;98006.19;4976219;28;20049;-89
2024/02/24 07:10:35;;;;;;;;;;;;;;;6.68;100.00;98010.78;4975964;28;20056;-88
2024/02/24 07:13:00;;;;;;;;;;;;;;;6.76;100.00;98020.91;4974634;28;20377;-88
2024/02/24 07:15:26;;;;;;;;;;;;;;;6.77;100.00;98015.56;4975931;28;20000;-88
2024/02/24 07:17:51;;;;;;;;;;;;;;;6.71;100.00;98022.00;4973697;28;20289;-88
2024/02/24 07:20:16;;;;;;;;;;;;;;;6.75;100.00;98032.34;4974765;28;19930;-92
2024/02/24 07:22:42;;;;;;;;;;;;;;;6.72;100.00;98034.22;4974567;28;19922;-91
2024/02/24 07:25:08;;;;;;;;;;;;;;;6.74;100.00;98031.53;4974864;28;19992;-85
2024/02/24 07:27:34;;;;;;;;;;;;;;;6.79;100.00;98041.78;4975942;28;19918;-86
2024/02/24 07:30:00;;;;;;;;;;;;;;;6.76;100.00;98047.22;4975499;28;20009;-91
2024/02/24 07:32:25;;;;;;;;;;;;;;;6.76;100.00;98049.88;4974555;28;19929;-91
2024/02/24 07:34:51;;;;;;;;;;;;;;;6.72;100.00;98063.19;4973208;28;19976;-93
2024/02/24 07:37:26;;;;;;;;;;;;;;;;;;;;;
2024/02/24 07:39:57;;;;;;;;;;;;;;;6.74;100.00;98076.28;4975091;28;20166;-91
2024/02/24 07:42:43;;;;;;;;;;;;;;;6.73;100.00;98078.06;4974242;28;19926;-91
2024/02/24 07:45:10;;;;;;;;;;;;;;;6.72;100.00;98086.03;4974896;28;20440;-92
2024/02/24 07:47:35;;;;;;;;;;;;;;;6.71;100.00;98087.81;4973441;28;19922;-88
2024/02/24 07:50:00;;;;;;;;;;;;;;;6.76;100.00;98089.34;4973657;28;20337;-86
2024/02/24 07:52:26;;;;;;;;;;;;;;;6.81;100.00;98105.72;4975210;28;19922;-87
2024/02/24 07:54:51;;;;;;;;;;;;;;;6.79;100.00;98115.50;4973919;28;19941;-87
2024/02/24 07:57:16;;;;;;;;;;;;;;;6.76;100.00;98116.50;4975220;28;20336;-87
2024/02/24 07:59:41;;;;;;;;;;;;;;;6.75;100.00;98111.31;4975166;28;19924;-88
2024/02/24 08:02:07;;;;;;;;;;;;;;;6.77;100.00;98115.59;4973738;28;19918;-89
2024/02/24 08:04:32;;;;;;;;;;;;;;;6.77;100.00;98110.31;4972599;28;20358;-87
2024/02/24 08:56:30;;;;;;;;;;;;;;;6.83;100.00;98175.81;5809589;23;19976;-87
2024/02/24 08:58:56;;;;;;;;;;;;;;;6.82;100.00;98175.91;4992352;28;19941;-90
2024/02/24 09:01:21;;;;;;;;;;;;;;;6.77;100.00;98177.94;4993447;28;19930;-84
2024/02/24 09:03:46;;;;;;;;;;;;;;;6.76;100.00;98176.22;4993104;28;19918;-86
2024/02/24 09:06:11;;;;;;;;;;;;;;;6.76;100.00;98182.31;4993436;28;19922;-86
2024/02/24 09:08:37;;;;;;;;;;;;;;;6.82;100.00;98194.31;4993388;28;20023;-86
2024/02/24 09:11:02;;;;;;;;;;;;;;;6.82;100.00;98199.59;4991900;28;19937;-86
2024/02/24 09:13:27;;;;;;;;;;;;;;;6.85;100.00;98191.53;4993416;28;19924;-81
2024/02/24 09:15:53;;;;;;;;;;;;;;;6.87;100.00;98194.94;4993084;28;19928;-85
2024/02/24 09:18:18;;;;;;;;;;;;;;;6.91;100.00;98185.94;4993252;28;20008;-87
2024/02/24 09:20:43;;;;;;;;;;;;;;;6.92;100.00;98192.88;4991656;28;20273;-87
2024/02/24 09:23:09;;;;;;;;;;;;;;;6.98;100.00;98197.84;4992712;28;19961;-87
2024/02/24 09:25:34;;;;;;;;;;;;;;;7.00;100.00;98195.13;4991618;28;20618;-86
2024/02/24 09:27:59;;;;;;;;;;;;;;;6.92;100.00;98198.16;4992999;28;19984;-86
2024/02/24 09:30:25;;;;;;;;;;;;;;;6.93;100.00;98204.28;4992972;28;19964;-85
2024/02/24 09:32:50;;;;;;;;;;;;;;;6.94;100.00;98208.59;4993286;28;19933;-86
2024/02/24 09:35:15;;;;;;;;;;;;;;;6.96;100.00;98202.34;4993181;28;19964;-86
2024/02/24 09:37:40;;;;;;;;;;;;;;;6.91;100.00;98209.66;4992855;28;19922;-85
2024/02/24 09:40:06;;;;;;;;;;;;;;;6.97;100.00;98203.19;4991399;28;19957;-86
2024/02/24 09:42:31;;;;;;;;;;;;;;;6.93;100.00;98218.31;4991530;28;20113;-86
2024/02/24 09:44:58;;;;;;;;;;;;;;;6.99;100.00;98212.72;4992826;28;20349;-86
2024/02/24 09:47:23;;;;;;;;;;;;;;;7.01;100.00;98213.47;4989618;28;19917;-89
2024/02/24 09:49:49;;;;;;;;;;;;;;;6.97;100.00;98216.34;4991216;28;19964;-88
2024/02/24 09:52:15;;;;;;;;;;;;;;;7.03;100.00;98218.66;4992198;28;19922;-85
2024/02/24 09:54:40;;;;;;;;;;;;;;;6.92;100.00;98221.84;4991815;28;19918;-88
2024/02/24 09:57:06;;;;;;;;;;;;;;;6.99;100.00;98225.00;4989678;28;20296;-89
2024/02/24 09:59:33;;;;;;;;;;;;;;;6.99;100.00;98225.88;4992078;28;19921;-88
2024/02/24 10:01:58;;;;;;;;;;;;;;;7.04;100.00;98223.00;4992516;28;20277;-85
2024/02/24 10:04:23;;;;;;;;;;;;;;;7.01;100.00;98234.53;4992781;28;19918;-87
2024/02/24 10:06:49;;;;;;;;;;;;;;;7.06;100.00;98229.03;4991293;28;19928;-86
2024/02/24 10:09:14;;;;;;;;;;;;;;;7.05;100.00;98229.94;4990971;28;19918;-89
2024/02/24 10:11:39;;;;;;;;;;;;;;;7.07;100.00;98228.94;4991169;28;19960;-87
2024/02/24 10:14:05;;;;;;;;;;;;;;;7.03;100.00;98232.66;4990706;28;19921;-88
2024/02/24 10:16:33;;;;;;;;;;;;;;;7.06;100.00;98243.03;4992642;28;19917;-86
2024/02/24 10:18:59;;;;;;;;;;;;;;;7.05;100.00;98241.38;4991171;28;20042;-89
2024/02/24 10:21:25;;;;;;;;;;;;;;;7.12;100.00;98243.66;4992532;28;19918;-87
2024/02/24 10:23:50;;;;;;;;;;;;;;;7.08;100.00;98249.09;4992385;28;19928;-87
2024/02/24 10:26:15;;;;;;;;;;;;;;;7.05;100.00;98246.63;4989277;28;20013;-88
2024/02/24 10:28:41;;;;;;;;;;;;;;;7.12;100.00;98260.31;4992440;28;19925;-87
2024/02/24 10:31:06;;;;;;;;;;;;;;;7.08;100.00;98262.28;4990589;28;19922;-89
2024/02/24 10:33:32;;;;;;;;;;;;;;;7.17;100.00;98270.63;4992379;28;19959;-88
2024/02/24 10:35:58;;;;;;;;;;;;;;;7.11;100.00;98270.94;4992402;28;19917;-88
2024/02/24 10:38:24;;;;;;;;;;;;;;;7.08;100.00;98272.81;4991969;28;19917;-87
2024/02/24 10:40:51;;;;;;;;;;;;;;;7.09;100.00;98263.94;4990951;28;19930;-90
2024/02/24 10:43:16;;;;;;;;;;;;;;;7.12;100.00;98267.38;4992284;28;19918;-88
2024/02/24 10:45:41;;;;;;;;;;;;;;;7.15;100.00;98272.47;4992226;28;19929;-86
2024/02/24 10:48:07;;;;;;;;;;;;;;;7.12;100.00;98277.91;4992228;28;19966;-86
2024/02/24 10:50:32;;;;;;;;;;;;;;;7.09;100.00;98279.75;4992210;28;19968;-86
2024/02/24 10:53:01;;;;;;;;;;;;;;;7.19;100.00;98287.19;4992303;28;20314;-91
2024/02/24 10:55:28;;;;;;;;;;;;;;;7.20;100.00;98281.00;4990936;28;19941;-91
2024/02/24 10:57:55;;;;;;;;;;;;;;;7.14;100.00;98286.59;4991950;28;20012;-88
2024/02/24 11:00:35;;;;;;;;;;;;;;;7.11;100.00;98292.84;4994564;28;19926;-89
2024/02/24 11:03:01;;;;;;;;;;;;;;;7.13;100.00;98300.66;4994746;28;19921;-88
2024/02/24 11:05:29;;;;;;;;;;;;;;;7.17;100.00;98302.22;4995757;28;19925;-89
2024/02/24 11:07:55;;;;;;;;;;;;;;;7.17;100.00;98297.78;4995412;28;19918;-88
2024/02/24 11:10:20;;;;;;;;;;;;;;;7.14;100.00;98297.13;4995260;28;19929;-87
2024/02/24 11:12:50;;;;;;;;;;;;;;;7.09;100.00;98295.56;4994233;28;19925;-88
2024/02/24 11:15:25;;;;;;;;;;;;;;;7.14;100.00;98290.06;4995680;28;19918;-90
2024/02/24 11:17:58;;;;;;;;;;;;;;;7.13;100.00;98290.13;4993917;28;19968;-87
2024/02/24 11:20:38;;;;;;;;;;;;;;;7.22;100.00;98289.66;5002085;28;19922;-87
2024/02/24 11:23:23;;;;;;;;;;;;;;;7.21;100.00;98287.94;4986138;28;20000;-86
2024/02/24 11:25:49;;;;;;;;;;;;;;;7.26;100.00;98291.22;5001320;28;20371;-86
2024/02/24 11:28:21;;;;;;;;;;;;;;;7.18;100.00;98293.38;5002598;28;19918;-87
2024/02/24 11:30:51;;;;;;;;;;;;;;;7.12;100.00;98289.28;4985564;28;19929;-89
2024/02/24 11:33:30;;;;;;;;;;;;;;;7.25;100.00;98286.84;5002494;28;19932;-90
2024/02/24 11:35:55;;;;;;;;;;;;;;;7.26;100.00;98281.50;5002723;28;20324;-85
2024/02/24 11:38:24;;;;;;;;;;;;;;;7.25;100.00;98278.97;5001513;28;19925;-89
2024/02/24 11:40:50;;;;;;;;;;;;;;;7.27;100.00;98277.09;5001606;28;19964;-89
2024/02/24 11:43:16;;;;;;;;;;;;;;;7.16;100.00;98271.53;5001922;28;19949;-87
2024/02/24 11:45:51;;;;;;;;;;;;;;;7.16;100.00;98279.44;5002497;28;19918;-83
2024/02/24 11:48:17;;;;;;;;;;;;;;;7.21;100.00;98269.50;5001714;28;19933;-87
2024/02/24 11:50:42;;;;;;;;;;;;;;;7.21;100.00;98274.78;4999527;28;19914;-85
2024/02/24 11:53:13;;;;;;;;;;;;;;;7.25;100.00;98281.59;4994532;28;19925;-87
2024/02/24 11:55:39;;;;;;;;;;;;;;;7.18;100.00;98285.47;4992031;28;19913;-91
2024/02/24 11:58:07;;;;;;;;;;;;;;;7.24;100.00;98279.88;4993019;28;19933;-88
2024/02/24 12:00:36;;;;;;;;;;;;;;;7.21;100.00;98282.69;4992909;28;19917;-89
2024/02/24 12:03:05;;;;;;;;;;;;;;;7.25;100.00;98286.84;4994701;28;19921;-87
2024/02/24 12:05:31;;;;;;;;;;;;;;;7.22;100.00;98279.13;4994672;28;19956;-88
2024/02/24 12:08:00;;;;;;;;;;;;;;;7.24;100.00;98277.25;4994434;28;19965;-89
2024/02/24 12:10:25;;;;;;;;;;;;;;;7.25;100.00;98271.91;4991930;28;19960;-89
2024/02/24 12:12:51;;;;;;;;;;;;;;;7.23;100.00;98270.28;4994599;28;19968;-91
2024/02/24 12:15:16;;;;;;;;;;;;;;;7.27;100.00;98271.81;4994521;28;19928;-85
2024/02/24 12:17:43;;;;;;;;;;;;;;;7.25;100.00;98273.69;4994273;28;19918;-84
2024/02/24 12:20:09;;;;;;;;;;;;;;;7.24;100.00;98261.44;4994098;28;20365;-84
2024/02/24 12:22:34;;;;;;;;;;;;;;;7.25;100.00;98268.41;4992518;28;19927;-88
2024/02/24 12:25:15;;;;;;;;;;;;;;;7.24;100.00;98267.56;4993781;28;20389;-87
2024/02/24 12:27:43;;;;;;;;;;;;;;;7.26;100.00;98265.69;4992879;28;19917;-87
2024/02/24 12:30:10;;;;;;;;;;;;;;;7.21;100.00;98272.13;4993021;28;19925;-80
2024/02/24 12:32:35;;;;;;;;;;;;;;;7.27;100.00;98271.81;4992723;28;19964;-86
2024/02/24 12:35:01;;;;;;;;;;;;;;;7.25;100.00;98271.91;4992726;28;20218;-84
2024/02/24 12:37:26;;;;;;;;;;;;;;;7.27;100.00;98267.41;4993189;28;19922;-89
2024/02/24 12:39:51;;;;;;;;;;;;;;;7.23;100.00;98265.03;4992704;28;19918;-87
2024/02/24 12:42:17;;;;;;;;;;;;;;;7.24;100.00;98266.72;4991261;28;19922;-86
2024/02/24 12:44:42;;;;;;;;;;;;;;;7.26;100.00;98268.34;4994006;28;20007;-86
2024/02/24 12:47:07;;;;;;;;;;;;;;;7.27;100.00;98267.41;4993834;28;20300;-88
2024/02/24 12:49:32;;;;;;;;;;;;;;;7.32;100.00;98258.41;4993709;28;19941;-86
2024/02/24 12:51:58;;;;;;;;;;;;;;;7.28;100.00;98271.72;4993972;28;20365;-84
2024/02/24 12:54:23;;;;;;;;;;;;;;;7.30;100.00;98255.84;4992201;28;20280;-89
2024/02/24 12:56:49;;;;;;;;;;;;;;;7.29;100.00;98267.31;4990910;28;19929;-84
2024/02/24 12:59:14;;;;;;;;;;;;;;;7.31;100.00;98268.09;4993456;28;19918;-88
2024/02/24 13:01:39;;;;;;;;;;;;;;;7.24;100.00;98269.34;4993336;28;19922;-86
2024/02/24 13:04:04;;;;;;;;;;;;;;;7.20;100.00;98266.03;4993200;28;19918;-87
2024/02/24 13:06:30;;;;;;;;;;;;;;;7.29;100.00;98269.94;4989711;28;20352;-87
2024/02/24 13:08:55;;;;;;;;;;;;;;;7.36;100.00;98260.78;4990541;28;19989;-86
2024/02/24 13:11:21;;;;;;;;;;;;;;;7.28;100.00;98257.72;4992211;28;20016;-89
2024/02/24 13:13:47;;;;;;;;;;;;;;;7.28;100.00;98261.19;4993145;28;19918;-89
2024/02/24 13:16:12;;;;;;;;;;;;;;;7.40;100.00;98259.69;4991926;28;20391;-87
2024/02/24 13:18:38;;;;;;;;;;;;;;;7.36;100.00;98255.50;4992241;28;19921;-86
2024/02/24 13:21:03;;;;;;;;;;;;;;;7.30;100.00;98261.13;4993154;28;20016;-86
2024/02/24 13:23:29;;;;;;;;;;;;;;;7.33;100.00;98270.66;4990020;28;19918;-88
2024/02/24 13:25:54;;;;;;;;;;;;;;;7.35;100.00;98252.97;4991804;28;19921;-83
2024/02/24 13:28:19;;;;;;;;;;;;;;;7.32;100.00;98259.22;4992671;28;20448;-85
2024/02/24 13:30:45;;;;;;;;;;;;;;;7.34;100.00;98259.16;4975504;28;19925;-85
2024/02/24 13:33:10;;;;;;;;;;;;;;;7.34;100.00;98259.16;4992687;28;19918;-83
2024/02/24 13:35:35;;;;;;;;;;;;;;;7.35;100.00;98264.34;4991825;28;19918;-87
2024/02/24 13:38:01;;;;;;;;;;;;;;;7.38;100.00;98277.34;4991506;28;20377;-88
2024/02/24 13:40:26;;;;;;;;;;;;;;;7.40;100.00;98269.38;4990066;28;19945;-85
2024/02/24 13:42:53;;;;;;;;;;;;;;;7.36;100.00;98260.78;4987058;28;21465;-85
2024/02/24 13:45:18;;;;;;;;;;;;;;;7.27;100.00;98267.41;4991491;28;19928;-87
2024/02/24 13:47:43;;;;;;;;;;;;;;;7.31;100.00;98265.47;4992796;28;20293;-86
2024/02/24 13:50:09;;;;;;;;;;;;;;;7.35;100.00;98272.25;4992764;28;19976;-86
2024/02/24 13:52:36;;;;;;;;;;;;;;;7.33;100.00;98271.50;4992763;28;20346;-86
2024/02/24 13:55:01;;;;;;;;;;;;;;;7.27;100.00;98271.81;4991141;28;19922;-87
2024/02/24 13:57:26;;;;;;;;;;;;;;;7.42;100.00;98260.47;4990031;28;19944;-80
2024/02/24 13:59:52;;;;;;;;;;;;;;;8.12;100.00;98265.38;4992673;28;19985;-88
2024/02/24 14:02:17;;;;;;;;;;;;;;;7.78;100.00;98269.91;4992552;28;19942;-85
2024/02/24 14:04:42;;;;;;;;;;;;;;;7.59;100.00;98270.06;4992838;28;19922;-85
2024/02/24 14:07:08;;;;;;;;;;;;;;;7.53;100.00;98274.81;4992661;28;19922;-85
2024/02/24 14:09:34;;;;;;;;;;;;;;;7.48;100.00;98279.50;4992679;28;20450;-90
2024/02/24 14:12:00;;;;;;;;;;;;;;;7.44;100.00;98292.84;4990280;28;20016;-87
2024/02/24 14:14:26;;;;;;;;;;;;;;;7.55;100.00;98296.69;4992845;28;20044;-87
2024/02/24 14:16:51;;;;;;;;;;;;;;;7.52;100.00;98302.13;4991334;28;20357;-89
2024/02/24 14:19:17;;;;;;;;;;;;;;;7.43;100.00;98304.31;4992277;28;19918;-86
2024/02/24 14:21:42;;;;;;;;;;;;;;;7.46;100.00;98300.66;4990831;28;19988;-87
2024/02/24 14:24:07;;;;;;;;;;;;;;;7.45;100.00;98301.59;4991112;28;19965;-86
2024/02/24 14:26:33;;;;;;;;;;;;;;;7.48;100.00;98309.34;4989863;28;19936;-85
2024/02/24 14:28:58;;;;;;;;;;;;;;;7.48;100.00;98305.84;4992718;28;19922;-86
2024/02/24 14:31:23;;;;;;;;;;;;;;;7.47;100.00;98310.28;4992567;28;20161;-85
2024/02/24 14:33:51;;;;;;;;;;;;;;;7.42;100.00;98312.31;4994307;28;20283;-87
2024/02/24 14:36:39;;;;;;;;;;;;;;;7.42;100.00;98312.31;4996384;28;20734;-88
2024/02/24 14:39:05;;;;;;;;;;;;;;;7.40;100.00;98314.16;4995238;28;20007;-88
2024/02/24 14:41:32;;;;;;;;;;;;;;;7.34;100.00;98314.50;4995202;28;19977;-88
2024/02/24 14:43:57;;;;;;;;;;;;;;;7.32;100.00;98317.19;4996159;28;19944;-89
2024/02/24 14:46:23;;;;;;;;;;;;;;;7.40;100.00;98324.72;4996072;28;20360;-87
2024/02/24 14:48:48;;;;;;;;;;;;;;;7.41;100.00;98322.00;4995784;28;19940;-85
2024/02/24 14:51:13;;;;;;;;;;;;;;;7.45;100.00;98328.81;4995990;28;19972;-90
2024/02/24 14:53:39;;;;;;;;;;;;;;;7.41;100.00;98336.97;4995870;28;19924;-91
2024/02/24 14:56:04;;;;;;;;;;;;;;;7.38;100.00;98342.41;4993255;28;19918;-89
2024/02/24 14:58:30;;;;;;;;;;;;;;;7.45;100.00;98336.72;4995758;28;20503;-92
2024/02/24 15:00:55;;;;;;;;;;;;;;;7.41;100.00;98340.44;4995780;28;20329;-90
2024/02/24 15:03:20;;;;;;;;;;;;;;;7.48;100.00;98348.03;4996063;28;20012;-91
2024/02/24 15:05:46;;;;;;;;;;;;;;;7.43;100.00;98343.84;4995596;28;20464;-90
2024/02/24 15:08:11;;;;;;;;;;;;;;;7.40;100.00;98343.16;4994927;28;19930;-84
2024/02/24 15:10:36;;;;;;;;;;;;;;;7.38;100.00;98347.66;4994494;28;19917;-88
2024/02/24 15:13:04;;;;;;;;;;;;;;;7.37;100.00;98346.81;4994323;28;19922;-89
2024/02/24 15:15:30;;;;;;;;;;;;;;;7.37;100.00;98346.81;4994594;28;19922;-86
2024/02/24 15:17:57;;;;;;;;;;;;;;;7.38;100.00;98351.13;4995411;28;19937;-90
2024/02/24 15:20:22;;;;;;;;;;;;;;;7.35;100.00;98353.09;4993921;28;19923;-87
2024/02/24 15:22:50;;;;;;;;;;;;;;;7.37;100.00;98361.75;4992154;28;19965;-85
2024/02/24 15:25:15;;;;;;;;;;;;;;;7.36;100.00;98360.06;4993174;28;20336;-90
2024/02/24 15:27:40;;;;;;;;;;;;;;;7.35;100.00;98361.84;4992859;28;19921;-90
2024/02/24 15:30:06;;;;;;;;;;;;;;;7.35;100.00;98359.19;4993151;28;19917;-88
2024/02/24 15:32:31;;;;;;;;;;;;;;;7.32;100.00;98356.72;4994060;28;19932;-88
2024/02/24 15:34:56;;;;;;;;;;;;;;;7.30;100.00;98361.22;4994063;28;20058;-89
2024/02/24 15:37:21;;;;;;;;;;;;;;;7.37;100.00;98360.00;4992903;28;19922;-85
2024/02/24 15:39:47;;;;;;;;;;;;;;;7.39;100.00;98359.91;4994078;28;20361;-85
2024/02/24 15:42:12;;;;;;;;;;;;;;;7.34;100.00;98361.91;4990584;28;20373;-86
2024/02/24 15:44:37;;;;;;;;;;;;;;;7.33;100.00;98361.06;4993061;28;20274;-89
2024/02/24 15:47:02;;;;;;;;;;;;;;;7.30;100.00;98376.19;4994932;28;20004;-88
2024/02/24 15:49:30;;;;;;;;;;;;;;;7.30;100.00;98377.03;4993477;28;20397;-88
2024/02/24 15:51:56;;;;;;;;;;;;;;;7.30;100.00;98376.19;4991246;28;20008;-88
2024/02/24 15:54:21;;;;;;;;;;;;;;;7.25;100.00;98379.06;4990621;28;20016;-84
2024/02/24 15:56:48;;;;;;;;;;;;;;;7.27;100.00;98372.81;4991250;28;20073;-89
2024/02/24 15:59:13;;;;;;;;;;;;;;;7.24;100.00;98380.00;4992485;28;19926;-84
2024/02/24 16:01:40;;;;;;;;;;;;;;;7.17;100.00;98371.56;4993431;28;19952;-86
2024/02/24 16:04:05;;;;;;;;;;;;;;;7.22;100.00;98374.81;4992144;28;19922;-83
2024/02/24 16:06:30;;;;;;;;;;;;;;;7.26;100.00;98375.53;4994505;28;19920;-86
2024/02/24 16:08:57;;;;;;;;;;;;;;;7.21;100.00;98377.50;4993304;28;19973;-86
2024/02/24 16:11:22;;;;;;;;;;;;;;;7.26;100.00;98378.16;4991739;28;20356;-86
2024/02/24 16:13:48;;;;;;;;;;;;;;;7.29;100.00;98380.59;4992181;28;19969;-90
2024/02/24 16:16:13;;;;;;;;;;;;;;;7.22;100.00;98385.34;4994059;28;19956;-90
2024/02/24 16:18:42;;;;;;;;;;;;;;;7.20;100.00;98383.72;4992072;28;20285;-86
2024/02/24 16:21:07;;;;;;;;;;;;;;;7.28;100.00;98379.75;4993243;28;19922;-87
2024/02/24 16:23:33;;;;;;;;;;;;;;;7.25;100.00;98390.44;4991881;28;20026;-87
2024/02/24 16:25:58;;;;;;;;;;;;;;;7.29;100.00;98393.78;4989922;28;19922;-89
2024/02/24 16:28:23;;;;;;;;;;;;;;;7.26;100.00;98392.16;4991631;28;19975;-90
2024/02/24 16:30:49;;;;;;;;;;;;;;;7.29;100.00;98399.03;5002361;28;19928;-85
2024/02/24 16:33:14;;;;;;;;;;;;;;;7.27;100.00;98408.81;4993906;28;19921;-86
2024/02/24 16:35:39;;;;;;;;;;;;;;;7.13;100.00;98411.31;4990875;28;19985;-90
2024/02/24 16:38:04;;;;;;;;;;;;;;;7.22;100.00;98416.13;4993341;28;19969;-88
2024/02/24 16:40:30;;;;;;;;;;;;;;;7.23;100.00;98412.56;4996957;28;19929;-86
2024/02/24 16:42:55;;;;;;;;;;;;;;;7.19;100.00;98411.00;4991152;28;19976;-89
2024/02/24 16:45:21;;;;;;;;;;;;;;;7.23;100.00;98407.28;4992044;28;19922;-84
2024/02/24 16:47:46;;;;;;;;;;;;;;;7.22;100.00;98416.13;4990577;28;19926;-86
2024/02/24 16:50:12;;;;;;;;;;;;;;;7.25;100.00;98411.53;4993970;28;19929;-87
2024/02/24 16:52:37;;;;;;;;;;;;;;;7.24;100.00;98408.97;4993756;28;19928;-87
2024/02/24 16:55:03;;;;;;;;;;;;;;;7.20;100.00;98415.34;4993791;28;20385;-88
2024/02/24 16:57:29;;;;;;;;;;;;;;;7.24;100.00;98416.88;4991763;28;19932;-84
2024/02/24 16:59:54;;;;;;;;;;;;;;;7.25;100.00;98415.97;4993565;28;19917;-89
2024/02/24 17:02:19;;;;;;;;;;;;;;;7.25;100.00;98423.88;4994074;28;19933;-83
2024/02/24 17:04:44;;;;;;;;;;;;;;;7.27;100.00;98425.50;4990061;28;20024;-85
2024/02/24 17:07:10;;;;;;;;;;;;;;;7.26;100.00;98425.56;4994482;28;19921;-87
2024/02/24 17:09:35;;;;;;;;;;;;;;;7.24;100.00;98435.31;4995992;28;20041;-90
2024/02/24 17:12:02;;;;;;;;;;;;;;;7.22;100.00;98430.13;4988250;28;19983;-86
2024/02/24 17:14:27;;;;;;;;;;;;;;;7.27;100.00;98425.50;4991404;28;19921;-84
2024/02/24 17:16:52;;;;;;;;;;;;;;;7.25;100.00;98437.03;4993699;28;19918;-83
2024/02/24 17:19:18;;;;;;;;;;;;;;;7.24;100.00;98424.78;4992158;28;19917;-88
2024/02/24 17:21:43;;;;;;;;;;;;;;;7.21;100.00;98435.47;4991850;28;19922;-87
2024/02/24 17:24:08;;;;;;;;;;;;;;;7.25;100.00;98437.03;4991208;28;20301;-88
2024/02/24 17:26:34;;;;;;;;;;;;;;;7.27;100.00;98436.03;4990194;28;19918;-85
2024/02/24 17:28:59;;;;;;;;;;;;;;;7.24;100.00;98436.19;4993341;28;19926;-84
2024/02/24 17:31:25;;;;;;;;;;;;;;;7.27;100.00;98432.53;4992745;28;20013;-86
2024/02/24 17:33:50;;;;;;;;;;;;;;;7.20;100.00;98439.06;4991545;28;20313;-86
2024/02/24 17:36:16;;;;;;;;;;;;;;;7.24;100.00;98445.84;4992887;28;19987;-89
2024/02/24 17:38:41;;;;;;;;;;;;;;;7.22;100.00;98453.00;4991619;28;19926;-89
2024/02/24 17:41:06;;;;;;;;;;;;;;;7.31;100.00;98451.66;4991001;28;19925;-88
2024/02/24 17:43:32;;;;;;;;;;;;;;;7.25;100.00;98447.56;4992760;28;19922;-87
2024/02/24 17:45:57;;;;;;;;;;;;;;;7.23;100.00;98446.81;4992394;28;20285;-89
2024/02/24 17:48:23;;;;;;;;;;;;;;;7.19;100.00;98442.59;4990104;28;19925;-85
2024/02/24 17:50:49;;;;;;;;;;;;;;;7.23;100.00;98457.34;4988494;28;19964;-87
2024/02/24 17:53:16;;;;;;;;;;;;;;;7.22;100.00;98461.75;4992854;28;19968;-91
2024/02/24 17:55:41;;;;;;;;;;;;;;;7.20;100.00;98457.50;4990328;28;19922;-88
2024/02/24 17:58:06;;;;;;;;;;;;;;;7.25;100.00;98463.38;4989265;28;19973;-86
2024/02/24 18:00:32;;;;;;;;;;;;;;;7.19;100.00;98469.78;4990427;28;19922;-86
2024/02/24 18:02:57;;;;;;;;;;;;;;;7.21;100.00;98477.63;4990950;28;19921;-89
2024/02/24 18:05:23;;;;;;;;;;;;;;;7.16;100.00;98469.09;4992844;28;19914;-86
2024/02/24 18:07:48;;;;;;;;;;;;;;;7.18;100.00;98470.75;4992716;28;20304;-87
2024/02/24 18:10:14;;;;;;;;;;;;;;;7.16;100.00;98464.69;4994705;28;19922;-84
2024/02/24 18:12:39;;;;;;;;;;;;;;;7.09;100.00;98469.41;4991126;28;19996;-87